sensor_id;sensor_type;location;lat;lon;timestamp;P1;durP1;ratioP1;P2;durP2;ratioP2
78508;SDS011;67802;50.846;7.958;2023-06-24T00:01:56;5.93;;;2.60;;
78508;SDS011;67802;50.846;7.958;2023-06-24T00:04:21;5.70;;;3.00;;
78508;SDS011;67802;50.846;7.958;2023-06-24T00:06:48;7.28;;;3.00;;
78508;SDS011;67802;50.846;7.958;2023-06-24T00:09:13;5.88;;;2.90;;
78508;SDS011;67802;50.846;7.958;2023-06-24T00:11:38;6.68;;;2.80;;
78508;SDS011;67802;50.846;7.958;2023-06-24T00:14:04;5.65;;;3.00;;
78508;SDS011;67802;50.846;7.958;2023-06-24T00:16:30;5.47;;;2.90;;
78508;SDS011;67802;50.846;7.958;2023-06-24T00:18:55;5.93;;;2.87;;
78508;SDS011;67802;50.846;7.958;2023-06-24T00:21:25;6.07;;;3.13;;
78508;SDS011;67802;50.846;7.958;2023-06-24T00:23:55;6.47;;;2.83;;
78508;SDS011;67802;50.846;7.958;2023-06-24T00:26:21;7.45;;;3.13;;
78508;SDS011;67802;50.846;7.958;2023-06-24T00:28:46;6.13;;;2.55;;
78508;SDS011;67802;50.846;7.958;2023-06-24T00:31:12;6.37;;;3.00;;
78508;SDS011;67802;50.846;7.958;2023-06-24T00:33:37;6.43;;;3.30;;
78508;SDS011;67802;50.846;7.958;2023-06-24T00:36:02;6.85;;;3.22;;
78508;SDS011;67802;50.846;7.958;2023-06-24T00:38:28;7.95;;;2.92;;
78508;SDS011;67802;50.846;7.958;2023-06-24T00:40:57;6.78;;;3.15;;
78508;SDS011;67802;50.846;7.958;2023-06-24T00:43:23;6.68;;;3.28;;
78508;SDS011;67802;50.846;7.958;2023-06-24T00:45:48;8.90;;;3.42;;
78508;SDS011;67802;50.846;7.958;2023-06-24T00:48:14;6.43;;;2.97;;
78508;SDS011;67802;50.846;7.958;2023-06-24T00:50:40;6.97;;;3.15;;
78508;SDS011;67802;50.846;7.958;2023-06-24T00:53:10;6.70;;;3.17;;
78508;SDS011;67802;50.846;7.958;2023-06-24T00:55:37;5.85;;;3.00;;
78508;SDS011;67802;50.846;7.958;2023-06-24T00:58:03;5.93;;;3.10;;
78508;SDS011;67802;50.846;7.958;2023-06-24T01:00:29;5.50;;;3.00;;
78508;SDS011;67802;50.846;7.958;2023-06-24T01:02:57;5.63;;;2.88;;
78508;SDS011;67802;50.846;7.958;2023-06-24T01:05:23;6.20;;;2.83;;
78508;SDS011;67802;50.846;7.958;2023-06-24T01:07:49;7.50;;;2.75;;
78508;SDS011;67802;50.846;7.958;2023-06-24T01:10:20;9.15;;;3.17;;
78508;SDS011;67802;50.846;7.958;2023-06-24T01:12:47;9.23;;;3.33;;
78508;SDS011;67802;50.846;7.958;2023-06-24T01:15:13;6.32;;;3.33;;
78508;SDS011;67802;50.846;7.958;2023-06-24T01:17:47;5.63;;;3.03;;
78508;SDS011;67802;50.846;7.958;2023-06-24T01:22:59;6.35;;;3.42;;
78508;SDS011;67802;50.846;7.958;2023-06-24T01:25:57;6.13;;;3.30;;
78508;SDS011;67802;50.846;7.958;2023-06-24T01:34:22;5.88;;;3.30;;
78508;SDS011;67802;50.846;7.958;2023-06-24T01:37:05;7.43;;;3.72;;
78508;SDS011;67802;50.846;7.958;2023-06-24T01:39:37;5.80;;;3.10;;
78508;SDS011;67802;50.846;7.958;2023-06-24T01:42:08;6.30;;;3.30;;
78508;SDS011;67802;50.846;7.958;2023-06-24T01:44:36;7.15;;;3.70;;
78508;SDS011;67802;50.846;7.958;2023-06-24T01:47:04;7.40;;;3.28;;
78508;SDS011;67802;50.846;7.958;2023-06-24T01:49:32;5.68;;;3.08;;
78508;SDS011;67802;50.846;7.958;2023-06-24T01:52:01;6.10;;;3.50;;
78508;SDS011;67802;50.846;7.958;2023-06-24T01:54:29;5.90;;;3.10;;
78508;SDS011;67802;50.846;7.958;2023-06-24T01:56:56;6.43;;;3.60;;
78508;SDS011;67802;50.846;7.958;2023-06-24T01:59:25;5.78;;;3.35;;
78508;SDS011;67802;50.846;7.958;2023-06-24T02:01:53;6.22;;;3.10;;
78508;SDS011;67802;50.846;7.958;2023-06-24T02:04:19;7.55;;;3.42;;
78508;SDS011;67802;50.846;7.958;2023-06-24T02:06:45;8.23;;;3.53;;
78508;SDS011;67802;50.846;7.958;2023-06-24T02:09:12;6.80;;;3.53;;
78508;SDS011;67802;50.846;7.958;2023-06-24T02:11:43;6.18;;;3.40;;
78508;SDS011;67802;50.846;7.958;2023-06-24T02:14:09;6.75;;;3.63;;
78508;SDS011;67802;50.846;7.958;2023-06-24T02:16:36;6.63;;;3.72;;
78508;SDS011;67802;50.846;7.958;2023-06-24T02:19:02;7.25;;;3.42;;
78508;SDS011;67802;50.846;7.958;2023-06-24T02:21:29;6.40;;;3.22;;
78508;SDS011;67802;50.846;7.958;2023-06-24T02:23:56;6.20;;;3.22;;
78508;SDS011;67802;50.846;7.958;2023-06-24T02:26:22;7.03;;;3.83;;
78508;SDS011;67802;50.846;7.958;2023-06-24T02:28:48;8.88;;;3.75;;
78508;SDS011;67802;50.846;7.958;2023-06-24T02:31:15;6.53;;;3.33;;
78508;SDS011;67802;50.846;7.958;2023-06-24T02:33:41;6.28;;;3.35;;
78508;SDS011;67802;50.846;7.958;2023-06-24T02:36:07;7.00;;;3.60;;
78508;SDS011;67802;50.846;7.958;2023-06-24T02:38:33;7.68;;;3.40;;
78508;SDS011;67802;50.846;7.958;2023-06-24T02:40:58;7.85;;;3.58;;
78508;SDS011;67802;50.846;7.958;2023-06-24T02:43:25;6.85;;;3.53;;
78508;SDS011;67802;50.846;7.958;2023-06-24T02:45:50;7.50;;;3.50;;
78508;SDS011;67802;50.846;7.958;2023-06-24T02:48:18;6.53;;;3.83;;
78508;SDS011;67802;50.846;7.958;2023-06-24T02:50:45;8.98;;;3.55;;
78508;SDS011;67802;50.846;7.958;2023-06-24T02:53:12;7.85;;;3.70;;
78508;SDS011;67802;50.846;7.958;2023-06-24T02:55:38;7.03;;;3.85;;
78508;SDS011;67802;50.846;7.958;2023-06-24T02:58:05;7.60;;;3.60;;
78508;SDS011;67802;50.846;7.958;2023-06-24T03:00:33;7.28;;;3.47;;
78508;SDS011;67802;50.846;7.958;2023-06-24T03:03:00;7.55;;;3.58;;
78508;SDS011;67802;50.846;7.958;2023-06-24T03:05:26;5.72;;;3.20;;
78508;SDS011;67802;50.846;7.958;2023-06-24T03:07:52;6.82;;;3.70;;
78508;SDS011;67802;50.846;7.958;2023-06-24T03:10:18;5.78;;;3.22;;
78508;SDS011;67802;50.846;7.958;2023-06-24T03:12:43;6.88;;;3.28;;
78508;SDS011;67802;50.846;7.958;2023-06-24T03:15:09;6.50;;;3.28;;
78508;SDS011;67802;50.846;7.958;2023-06-24T03:17:34;6.88;;;3.47;;
78508;SDS011;67802;50.846;7.958;2023-06-24T03:20:01;8.05;;;3.80;;
78508;SDS011;67802;50.846;7.958;2023-06-24T03:22:26;7.22;;;3.78;;
78508;SDS011;67802;50.846;7.958;2023-06-24T03:24:51;8.23;;;3.67;;
78508;SDS011;67802;50.846;7.958;2023-06-24T03:27:18;7.00;;;3.40;;
78508;SDS011;67802;50.846;7.958;2023-06-24T03:29:43;6.75;;;3.28;;
78508;SDS011;67802;50.846;7.958;2023-06-24T03:32:09;5.82;;;3.28;;
78508;SDS011;67802;50.846;7.958;2023-06-24T03:34:34;6.18;;;3.42;;
78508;SDS011;67802;50.846;7.958;2023-06-24T03:37:00;7.40;;;3.30;;
78508;SDS011;67802;50.846;7.958;2023-06-24T03:39:25;6.90;;;3.53;;
78508;SDS011;67802;50.846;7.958;2023-06-24T03:41:51;6.90;;;3.42;;
78508;SDS011;67802;50.846;7.958;2023-06-24T03:44:16;6.10;;;3.17;;
78508;SDS011;67802;50.846;7.958;2023-06-24T03:46:41;6.78;;;3.33;;
78508;SDS011;67802;50.846;7.958;2023-06-24T03:49:06;5.93;;;3.30;;
78508;SDS011;67802;50.846;7.958;2023-06-24T03:51:32;6.95;;;3.65;;
78508;SDS011;67802;50.846;7.958;2023-06-24T03:53:57;6.13;;;3.20;;
78508;SDS011;67802;50.846;7.958;2023-06-24T03:56:23;6.70;;;3.03;;
78508;SDS011;67802;50.846;7.958;2023-06-24T03:58:48;5.78;;;3.25;;
78508;SDS011;67802;50.846;7.958;2023-06-24T04:01:13;7.72;;;2.97;;
78508;SDS011;67802;50.846;7.958;2023-06-24T04:03:39;6.85;;;3.38;;
78508;SDS011;67802;50.846;7.958;2023-06-24T04:06:04;5.78;;;3.38;;
78508;SDS011;67802;50.846;7.958;2023-06-24T04:08:29;7.05;;;3.20;;
78508;SDS011;67802;50.846;7.958;2023-06-24T04:10:55;7.57;;;3.20;;
78508;SDS011;67802;50.846;7.958;2023-06-24T04:13:28;5.60;;;3.28;;
78508;SDS011;67802;50.846;7.958;2023-06-24T04:15:54;9.35;;;3.63;;
78508;SDS011;67802;50.846;7.958;2023-06-24T04:18:19;6.88;;;3.53;;
78508;SDS011;67802;50.846;7.958;2023-06-24T04:20:45;6.53;;;4.10;;
78508;SDS011;67802;50.846;7.958;2023-06-24T04:23:10;7.15;;;3.55;;
78508;SDS011;67802;50.846;7.958;2023-06-24T04:25:36;6.15;;;3.33;;
78508;SDS011;67802;50.846;7.958;2023-06-24T04:28:02;7.13;;;3.30;;
78508;SDS011;67802;50.846;7.958;2023-06-24T04:30:29;8.95;;;3.40;;
78508;SDS011;67802;50.846;7.958;2023-06-24T04:32:55;7.38;;;3.20;;
78508;SDS011;67802;50.846;7.958;2023-06-24T04:35:20;7.35;;;3.15;;
78508;SDS011;67802;50.846;7.958;2023-06-24T04:37:45;8.27;;;3.58;;
78508;SDS011;67802;50.846;7.958;2023-06-24T04:40:11;5.43;;;3.05;;
78508;SDS011;67802;50.846;7.958;2023-06-24T04:42:37;6.95;;;3.50;;
78508;SDS011;67802;50.846;7.958;2023-06-24T04:45:02;5.72;;;3.35;;
78508;SDS011;67802;50.846;7.958;2023-06-24T04:47:30;5.88;;;3.22;;
78508;SDS011;67802;50.846;7.958;2023-06-24T04:49:55;6.43;;;2.95;;
78508;SDS011;67802;50.846;7.958;2023-06-24T04:52:22;7.60;;;3.08;;
78508;SDS011;67802;50.846;7.958;2023-06-24T04:54:48;7.85;;;3.20;;
78508;SDS011;67802;50.846;7.958;2023-06-24T04:57:25;6.43;;;3.13;;
78508;SDS011;67802;50.846;7.958;2023-06-24T04:59:52;5.53;;;3.08;;
78508;SDS011;67802;50.846;7.958;2023-06-24T05:02:17;6.50;;;3.20;;
78508;SDS011;67802;50.846;7.958;2023-06-24T05:04:42;8.27;;;3.63;;
78508;SDS011;67802;50.846;7.958;2023-06-24T05:07:07;8.35;;;3.50;;
78508;SDS011;67802;50.846;7.958;2023-06-24T05:09:33;8.52;;;3.20;;
78508;SDS011;67802;50.846;7.958;2023-06-24T05:11:58;5.03;;;2.67;;
78508;SDS011;67802;50.846;7.958;2023-06-24T05:14:23;5.88;;;3.13;;
78508;SDS011;67802;50.846;7.958;2023-06-24T05:16:49;5.82;;;2.75;;
78508;SDS011;67802;50.846;7.958;2023-06-24T05:19:14;5.65;;;3.17;;
78508;SDS011;67802;50.846;7.958;2023-06-24T05:21:41;7.57;;;3.08;;
78508;SDS011;67802;50.846;7.958;2023-06-24T05:24:06;7.63;;;2.83;;
78508;SDS011;67802;50.846;7.958;2023-06-24T05:26:32;6.47;;;3.13;;
78508;SDS011;67802;50.846;7.958;2023-06-24T05:28:57;6.07;;;2.83;;
78508;SDS011;67802;50.846;7.958;2023-06-24T05:31:22;6.03;;;2.93;;
78508;SDS011;67802;50.846;7.958;2023-06-24T05:33:47;7.18;;;3.30;;
78508;SDS011;67802;50.846;7.958;2023-06-24T05:36:13;5.27;;;2.80;;
78508;SDS011;67802;50.846;7.958;2023-06-24T05:38:38;4.97;;;2.70;;
78508;SDS011;67802;50.846;7.958;2023-06-24T05:41:03;6.18;;;2.92;;
78508;SDS011;67802;50.846;7.958;2023-06-24T05:43:28;6.55;;;2.95;;
78508;SDS011;67802;50.846;7.958;2023-06-24T05:45:54;5.18;;;2.75;;
78508;SDS011;67802;50.846;7.958;2023-06-24T05:48:19;10.32;;;3.13;;
78508;SDS011;67802;50.846;7.958;2023-06-24T05:50:44;6.07;;;3.10;;
78508;SDS011;67802;50.846;7.958;2023-06-24T05:53:10;5.47;;;2.97;;
78508;SDS011;67802;50.846;7.958;2023-06-24T05:55:35;5.83;;;3.13;;
78508;SDS011;67802;50.846;7.958;2023-06-24T05:58:00;6.32;;;3.10;;
78508;SDS011;67802;50.846;7.958;2023-06-24T06:00:26;6.70;;;3.10;;
78508;SDS011;67802;50.846;7.958;2023-06-24T06:02:51;7.25;;;3.15;;
78508;SDS011;67802;50.846;7.958;2023-06-24T06:05:16;7.80;;;2.83;;
78508;SDS011;67802;50.846;7.958;2023-06-24T06:07:42;5.22;;;2.72;;
78508;SDS011;67802;50.846;7.958;2023-06-24T06:10:08;5.22;;;2.70;;
78508;SDS011;67802;50.846;7.958;2023-06-24T06:12:34;6.63;;;3.30;;
78508;SDS011;67802;50.846;7.958;2023-06-24T06:14:59;5.95;;;2.85;;
78508;SDS011;67802;50.846;7.958;2023-06-24T06:17:24;5.38;;;2.80;;
78508;SDS011;67802;50.846;7.958;2023-06-24T06:19:50;6.15;;;2.85;;
78508;SDS011;67802;50.846;7.958;2023-06-24T06:22:15;7.00;;;2.90;;
78508;SDS011;67802;50.846;7.958;2023-06-24T06:24:40;5.82;;;3.00;;
78508;SDS011;67802;50.846;7.958;2023-06-24T06:27:09;7.93;;;3.22;;
78508;SDS011;67802;50.846;7.958;2023-06-24T06:29:35;6.07;;;2.90;;
78508;SDS011;67802;50.846;7.958;2023-06-24T06:32:01;6.03;;;2.97;;
78508;SDS011;67802;50.846;7.958;2023-06-24T06:34:26;7.00;;;3.20;;
78508;SDS011;67802;50.846;7.958;2023-06-24T06:36:51;5.43;;;2.80;;
78508;SDS011;67802;50.846;7.958;2023-06-24T06:39:16;5.10;;;2.88;;
78508;SDS011;67802;50.846;7.958;2023-06-24T06:41:42;5.82;;;3.03;;
78508;SDS011;67802;50.846;7.958;2023-06-24T06:44:07;7.43;;;2.97;;
78508;SDS011;67802;50.846;7.958;2023-06-24T06:46:32;5.27;;;2.83;;
78508;SDS011;67802;50.846;7.958;2023-06-24T06:48:58;6.05;;;2.90;;
78508;SDS011;67802;50.846;7.958;2023-06-24T06:51:24;5.75;;;2.90;;
78508;SDS011;67802;50.846;7.958;2023-06-24T06:53:50;5.85;;;2.75;;
78508;SDS011;67802;50.846;7.958;2023-06-24T06:56:17;6.07;;;2.95;;
78508;SDS011;67802;50.846;7.958;2023-06-24T06:58:43;6.65;;;2.80;;
78508;SDS011;67802;50.846;7.958;2023-06-24T07:01:08;6.47;;;3.47;;
78508;SDS011;67802;50.846;7.958;2023-06-24T07:03:33;6.10;;;3.10;;
78508;SDS011;67802;50.846;7.958;2023-06-24T07:05:59;6.43;;;2.70;;
78508;SDS011;67802;50.846;7.958;2023-06-24T07:08:24;5.23;;;2.70;;
78508;SDS011;67802;50.846;7.958;2023-06-24T07:10:49;7.15;;;3.13;;
78508;SDS011;67802;50.846;7.958;2023-06-24T07:13:14;6.85;;;2.85;;
78508;SDS011;67802;50.846;7.958;2023-06-24T07:15:40;9.90;;;3.27;;
78508;SDS011;67802;50.846;7.958;2023-06-24T07:18:05;6.82;;;3.33;;
78508;SDS011;67802;50.846;7.958;2023-06-24T07:20:31;6.00;;;2.73;;
78508;SDS011;67802;50.846;7.958;2023-06-24T07:22:56;6.28;;;3.10;;
78508;SDS011;67802;50.846;7.958;2023-06-24T07:25:21;6.53;;;2.77;;
78508;SDS011;67802;50.846;7.958;2023-06-24T07:27:46;7.47;;;3.05;;
78508;SDS011;67802;50.846;7.958;2023-06-24T07:30:12;6.00;;;2.97;;
78508;SDS011;67802;50.846;7.958;2023-06-24T07:32:37;5.45;;;2.90;;
78508;SDS011;67802;50.846;7.958;2023-06-24T07:35:03;6.75;;;2.90;;
78508;SDS011;67802;50.846;7.958;2023-06-24T07:37:28;6.65;;;3.33;;
78508;SDS011;67802;50.846;7.958;2023-06-24T07:39:54;7.80;;;3.10;;
78508;SDS011;67802;50.846;7.958;2023-06-24T07:42:19;5.40;;;2.90;;
78508;SDS011;67802;50.846;7.958;2023-06-24T07:44:45;7.13;;;3.03;;
78508;SDS011;67802;50.846;7.958;2023-06-24T07:47:10;6.43;;;3.08;;
78508;SDS011;67802;50.846;7.958;2023-06-24T07:49:36;6.38;;;3.08;;
78508;SDS011;67802;50.846;7.958;2023-06-24T07:52:01;6.35;;;3.22;;
78508;SDS011;67802;50.846;7.958;2023-06-24T07:54:27;6.25;;;2.83;;
78508;SDS011;67802;50.846;7.958;2023-06-24T07:56:52;6.33;;;3.10;;
78508;SDS011;67802;50.846;7.958;2023-06-24T07:59:17;6.53;;;3.22;;
78508;SDS011;67802;50.846;7.958;2023-06-24T08:01:43;6.23;;;3.10;;
78508;SDS011;67802;50.846;7.958;2023-06-24T08:04:08;6.65;;;3.03;;
78508;SDS011;67802;50.846;7.958;2023-06-24T08:06:33;5.83;;;2.87;;
78508;SDS011;67802;50.846;7.958;2023-06-24T08:08:59;4.85;;;2.70;;
78508;SDS011;67802;50.846;7.958;2023-06-24T08:11:24;7.03;;;3.20;;
78508;SDS011;67802;50.846;7.958;2023-06-24T08:13:49;5.65;;;2.92;;
78508;SDS011;67802;50.846;7.958;2023-06-24T08:16:15;5.67;;;2.83;;
78508;SDS011;67802;50.846;7.958;2023-06-24T08:18:42;6.05;;;2.90;;
78508;SDS011;67802;50.846;7.958;2023-06-24T08:21:07;6.18;;;2.78;;
78508;SDS011;67802;50.846;7.958;2023-06-24T08:23:33;5.97;;;2.80;;
78508;SDS011;67802;50.846;7.958;2023-06-24T08:25:58;7.40;;;3.30;;
78508;SDS011;67802;50.846;7.958;2023-06-24T08:28:23;7.60;;;2.67;;
78508;SDS011;67802;50.846;7.958;2023-06-24T08:30:48;6.70;;;3.40;;
78508;SDS011;67802;50.846;7.958;2023-06-24T08:33:14;7.65;;;3.85;;
78508;SDS011;67802;50.846;7.958;2023-06-24T08:35:39;6.47;;;3.53;;
78508;SDS011;67802;50.846;7.958;2023-06-24T08:38:04;6.00;;;3.03;;
78508;SDS011;67802;50.846;7.958;2023-06-24T08:40:30;7.03;;;3.20;;
78508;SDS011;67802;50.846;7.958;2023-06-24T08:42:55;5.93;;;3.15;;
78508;SDS011;67802;50.846;7.958;2023-06-24T08:45:21;6.82;;;3.17;;
78508;SDS011;67802;50.846;7.958;2023-06-24T08:47:47;6.25;;;3.33;;
78508;SDS011;67802;50.846;7.958;2023-06-24T08:50:15;8.10;;;3.03;;
78508;SDS011;67802;50.846;7.958;2023-06-24T08:52:42;7.30;;;3.30;;
78508;SDS011;67802;50.846;7.958;2023-06-24T08:55:10;5.07;;;2.95;;
78508;SDS011;67802;50.846;7.958;2023-06-24T08:57:38;6.43;;;3.05;;
78508;SDS011;67802;50.846;7.958;2023-06-24T09:00:04;5.07;;;2.60;;
78508;SDS011;67802;50.846;7.958;2023-06-24T09:02:33;5.63;;;2.90;;
78508;SDS011;67802;50.846;7.958;2023-06-24T09:05:02;7.13;;;3.10;;
78508;SDS011;67802;50.846;7.958;2023-06-24T09:07:29;6.95;;;3.20;;
78508;SDS011;67802;50.846;7.958;2023-06-24T09:09:54;5.85;;;2.80;;
78508;SDS011;67802;50.846;7.958;2023-06-24T09:12:20;5.72;;;3.10;;
78508;SDS011;67802;50.846;7.958;2023-06-24T09:14:48;7.15;;;3.50;;
78508;SDS011;67802;50.846;7.958;2023-06-24T09:17:15;7.65;;;3.60;;
78508;SDS011;67802;50.846;7.958;2023-06-24T09:19:40;8.80;;;3.88;;
78508;SDS011;67802;50.846;7.958;2023-06-24T09:22:07;8.88;;;4.00;;
78508;SDS011;67802;50.846;7.958;2023-06-24T09:24:41;12.88;;;4.38;;
78508;SDS011;67802;50.846;7.958;2023-06-24T09:27:06;9.23;;;4.55;;
78508;SDS011;67802;50.846;7.958;2023-06-24T09:29:32;10.80;;;5.10;;
78508;SDS011;67802;50.846;7.958;2023-06-24T09:31:59;10.23;;;4.13;;
78508;SDS011;67802;50.846;7.958;2023-06-24T09:34:25;8.68;;;4.00;;
78508;SDS011;67802;50.846;7.958;2023-06-24T09:36:55;9.32;;;4.35;;
78508;SDS011;67802;50.846;7.958;2023-06-24T09:39:21;10.20;;;3.90;;
78508;SDS011;67802;50.846;7.958;2023-06-24T09:41:53;9.98;;;4.32;;
78508;SDS011;67802;50.846;7.958;2023-06-24T09:44:18;10.23;;;4.68;;
78508;SDS011;67802;50.846;7.958;2023-06-24T09:46:44;13.55;;;4.72;;
78508;SDS011;67802;50.846;7.958;2023-06-24T09:49:10;8.45;;;5.18;;
78508;SDS011;67802;50.846;7.958;2023-06-24T09:51:39;10.40;;;5.00;;
78508;SDS011;67802;50.846;7.958;2023-06-24T09:54:09;9.98;;;4.85;;
78508;SDS011;67802;50.846;7.958;2023-06-24T09:56:36;8.85;;;4.70;;
78508;SDS011;67802;50.846;7.958;2023-06-24T09:59:05;8.05;;;4.32;;
78508;SDS011;67802;50.846;7.958;2023-06-24T10:01:32;8.63;;;4.30;;
78508;SDS011;67802;50.846;7.958;2023-06-24T10:04:00;9.85;;;4.20;;
78508;SDS011;67802;50.846;7.958;2023-06-24T10:06:26;8.13;;;4.10;;
78508;SDS011;67802;50.846;7.958;2023-06-24T10:08:52;7.43;;;4.05;;
78508;SDS011;67802;50.846;7.958;2023-06-24T10:11:18;9.70;;;4.03;;
78508;SDS011;67802;50.846;7.958;2023-06-24T10:13:43;6.85;;;3.70;;
78508;SDS011;67802;50.846;7.958;2023-06-24T10:16:09;8.10;;;3.95;;
78508;SDS011;67802;50.846;7.958;2023-06-24T10:18:35;8.40;;;3.92;;
78508;SDS011;67802;50.846;7.958;2023-06-24T10:21:04;7.82;;;4.30;;
78508;SDS011;67802;50.846;7.958;2023-06-24T10:23:36;8.50;;;4.00;;
78508;SDS011;67802;50.846;7.958;2023-06-24T10:26:10;7.53;;;3.80;;
78508;SDS011;67802;50.846;7.958;2023-06-24T10:29:22;7.72;;;3.92;;
78508;SDS011;67802;50.846;7.958;2023-06-24T10:36:55;7.65;;;4.35;;
78508;SDS011;67802;50.846;7.958;2023-06-24T10:44:52;6.07;;;3.25;;
78508;SDS011;67802;50.846;7.958;2023-06-24T10:47:18;7.38;;;3.80;;
78508;SDS011;67802;50.846;7.958;2023-06-24T10:49:45;7.15;;;3.80;;
78508;SDS011;67802;50.846;7.958;2023-06-24T10:52:10;7.55;;;3.58;;
78508;SDS011;67802;50.846;7.958;2023-06-24T10:54:37;8.15;;;3.50;;
78508;SDS011;67802;50.846;7.958;2023-06-24T10:57:03;5.93;;;3.50;;
78508;SDS011;67802;50.846;7.958;2023-06-24T10:59:34;6.68;;;3.55;;
78508;SDS011;67802;50.846;7.958;2023-06-24T11:01:59;7.43;;;3.53;;
78508;SDS011;67802;50.846;7.958;2023-06-24T11:04:25;7.80;;;3.70;;
78508;SDS011;67802;50.846;7.958;2023-06-24T11:06:56;6.13;;;3.13;;
78508;SDS011;67802;50.846;7.958;2023-06-24T11:09:25;7.45;;;4.05;;
78508;SDS011;67802;50.846;7.958;2023-06-24T11:11:50;7.53;;;3.55;;
78508;SDS011;67802;50.846;7.958;2023-06-24T11:14:16;6.78;;;3.20;;
78508;SDS011;67802;50.846;7.958;2023-06-24T11:16:41;6.97;;;3.45;;
78508;SDS011;67802;50.846;7.958;2023-06-24T11:19:06;6.45;;;3.45;;
78508;SDS011;67802;50.846;7.958;2023-06-24T11:21:32;6.47;;;3.55;;
78508;SDS011;67802;50.846;7.958;2023-06-24T11:24:01;7.43;;;3.08;;
78508;SDS011;67802;50.846;7.958;2023-06-24T11:28:53;6.30;;;3.28;;
78508;SDS011;67802;50.846;7.958;2023-06-24T11:31:18;5.90;;;3.13;;
78508;SDS011;67802;50.846;7.958;2023-06-24T11:33:50;5.80;;;3.35;;
78508;SDS011;67802;50.846;7.958;2023-06-24T11:36:18;6.75;;;3.35;;
78508;SDS011;67802;50.846;7.958;2023-06-24T11:38:47;5.60;;;3.33;;
78508;SDS011;67802;50.846;7.958;2023-06-24T11:41:13;6.10;;;3.33;;
78508;SDS011;67802;50.846;7.958;2023-06-24T11:43:44;6.20;;;3.05;;
78508;SDS011;67802;50.846;7.958;2023-06-24T11:46:09;6.97;;;3.20;;
78508;SDS011;67802;50.846;7.958;2023-06-24T11:48:41;5.65;;;2.83;;
78508;SDS011;67802;50.846;7.958;2023-06-24T11:51:12;6.70;;;3.17;;
78508;SDS011;67802;50.846;7.958;2023-06-24T11:53:42;7.15;;;3.28;;
78508;SDS011;67802;50.846;7.958;2023-06-24T11:56:08;6.43;;;3.05;;
78508;SDS011;67802;50.846;7.958;2023-06-24T11:58:34;5.30;;;3.08;;
78508;SDS011;67802;50.846;7.958;2023-06-24T12:01:03;7.10;;;3.17;;
78508;SDS011;67802;50.846;7.958;2023-06-24T12:03:31;5.13;;;2.95;;
78508;SDS011;67802;50.846;7.958;2023-06-24T12:05:58;6.15;;;3.08;;
78508;SDS011;67802;50.846;7.958;2023-06-24T12:08:24;6.85;;;3.10;;
78508;SDS011;67802;50.846;7.958;2023-06-24T12:10:49;5.90;;;3.25;;
78508;SDS011;67802;50.846;7.958;2023-06-24T12:13:15;6.07;;;3.20;;
78508;SDS011;67802;50.846;7.958;2023-06-24T12:15:40;6.38;;;3.30;;
78508;SDS011;67802;50.846;7.958;2023-06-24T12:18:06;6.05;;;3.42;;
78508;SDS011;67802;50.846;7.958;2023-06-24T12:20:31;6.10;;;3.22;;
78508;SDS011;67802;50.846;7.958;2023-06-24T12:22:57;7.05;;;2.97;;
78508;SDS011;67802;50.846;7.958;2023-06-24T12:25:23;5.20;;;2.88;;
78508;SDS011;67802;50.846;7.958;2023-06-24T12:27:49;6.15;;;3.30;;
78508;SDS011;67802;50.846;7.958;2023-06-24T12:30:15;5.75;;;3.05;;
78508;SDS011;67802;50.846;7.958;2023-06-24T12:32:41;7.03;;;3.08;;
78508;SDS011;67802;50.846;7.958;2023-06-24T12:35:07;5.30;;;2.72;;
78508;SDS011;67802;50.846;7.958;2023-06-24T12:37:34;5.78;;;2.95;;
78508;SDS011;67802;50.846;7.958;2023-06-24T12:40:00;6.45;;;3.60;;
78508;SDS011;67802;50.846;7.958;2023-06-24T12:42:26;6.35;;;2.97;;
78508;SDS011;67802;50.846;7.958;2023-06-24T12:44:52;5.65;;;3.17;;
78508;SDS011;67802;50.846;7.958;2023-06-24T12:47:17;5.90;;;3.20;;
78508;SDS011;67802;50.846;7.958;2023-06-24T12:49:43;5.65;;;3.25;;
78508;SDS011;67802;50.846;7.958;2023-06-24T12:52:08;5.55;;;3.10;;
78508;SDS011;67802;50.846;7.958;2023-06-24T12:54:34;6.45;;;3.40;;
78508;SDS011;67802;50.846;7.958;2023-06-24T12:57:00;6.25;;;3.05;;
78508;SDS011;67802;50.846;7.958;2023-06-24T12:59:26;6.20;;;3.40;;
78508;SDS011;67802;50.846;7.958;2023-06-24T13:01:52;6.25;;;3.30;;
78508;SDS011;67802;50.846;7.958;2023-06-24T13:04:18;5.63;;;3.22;;
78508;SDS011;67802;50.846;7.958;2023-06-24T13:06:45;5.13;;;2.78;;
78508;SDS011;67802;50.846;7.958;2023-06-24T13:09:10;5.28;;;2.83;;
78508;SDS011;67802;50.846;7.958;2023-06-24T13:14:58;5.70;;;3.05;;
78508;SDS011;67802;50.846;7.958;2023-06-24T13:17:23;5.57;;;3.13;;
78508;SDS011;67802;50.846;7.958;2023-06-24T13:19:49;5.50;;;2.90;;
78508;SDS011;67802;50.846;7.958;2023-06-24T13:22:14;5.60;;;3.33;;
78508;SDS011;67802;50.846;7.958;2023-06-24T13:24:40;5.73;;;3.10;;
78508;SDS011;67802;50.846;7.958;2023-06-24T13:27:05;6.67;;;3.03;;
78508;SDS011;67802;50.846;7.958;2023-06-24T13:29:31;5.47;;;2.85;;
78508;SDS011;67802;50.846;7.958;2023-06-24T13:31:56;6.18;;;2.83;;
78508;SDS011;67802;50.846;7.958;2023-06-24T13:34:21;6.45;;;3.53;;
78508;SDS011;67802;50.846;7.958;2023-06-24T13:36:47;6.53;;;3.10;;
78508;SDS011;67802;50.846;7.958;2023-06-24T13:39:12;5.70;;;3.03;;
78508;SDS011;67802;50.846;7.958;2023-06-24T13:41:38;5.28;;;2.80;;
78508;SDS011;67802;50.846;7.958;2023-06-24T13:44:04;5.47;;;3.00;;
78508;SDS011;67802;50.846;7.958;2023-06-24T13:46:30;6.18;;;3.10;;
78508;SDS011;67802;50.846;7.958;2023-06-24T13:48:57;6.20;;;3.05;;
78508;SDS011;67802;50.846;7.958;2023-06-24T13:51:23;5.15;;;2.70;;
78508;SDS011;67802;50.846;7.958;2023-06-24T13:53:49;6.57;;;2.92;;
78508;SDS011;67802;50.846;7.958;2023-06-24T13:56:18;5.47;;;2.78;;
78508;SDS011;67802;50.846;7.958;2023-06-24T13:58:44;4.93;;;2.60;;
78508;SDS011;67802;50.846;7.958;2023-06-24T14:01:10;5.13;;;2.90;;
78508;SDS011;67802;50.846;7.958;2023-06-24T14:03:35;6.50;;;2.95;;
78508;SDS011;67802;50.846;7.958;2023-06-24T14:06:01;6.20;;;2.80;;
78508;SDS011;67802;50.846;7.958;2023-06-24T14:08:28;6.38;;;2.70;;
78508;SDS011;67802;50.846;7.958;2023-06-24T14:10:55;5.75;;;3.10;;
78508;SDS011;67802;50.846;7.958;2023-06-24T14:13:21;4.97;;;2.65;;
78508;SDS011;67802;50.846;7.958;2023-06-24T14:15:48;5.93;;;2.72;;
78508;SDS011;67802;50.846;7.958;2023-06-24T14:18:13;6.90;;;3.13;;
78508;SDS011;67802;50.846;7.958;2023-06-24T14:20:39;5.32;;;2.60;;
78508;SDS011;67802;50.846;7.958;2023-06-24T14:23:05;6.68;;;3.03;;
78508;SDS011;67802;50.846;7.958;2023-06-24T14:25:30;4.88;;;2.60;;
78508;SDS011;67802;50.846;7.958;2023-06-24T14:27:55;5.93;;;2.83;;
78508;SDS011;67802;50.846;7.958;2023-06-24T14:30:21;6.38;;;3.05;;
78508;SDS011;67802;50.846;7.958;2023-06-24T14:32:46;7.40;;;3.03;;
78508;SDS011;67802;50.846;7.958;2023-06-24T14:35:11;5.40;;;2.90;;
78508;SDS011;67802;50.846;7.958;2023-06-24T14:37:37;6.40;;;3.17;;
78508;SDS011;67802;50.846;7.958;2023-06-24T14:40:02;5.93;;;2.40;;
78508;SDS011;67802;50.846;7.958;2023-06-24T14:42:28;7.03;;;2.88;;
78508;SDS011;67802;50.846;7.958;2023-06-24T14:44:53;6.53;;;2.90;;
78508;SDS011;67802;50.846;7.958;2023-06-24T14:47:19;6.75;;;3.10;;
78508;SDS011;67802;50.846;7.958;2023-06-24T14:49:44;5.35;;;2.70;;
78508;SDS011;67802;50.846;7.958;2023-06-24T14:52:10;5.43;;;2.97;;
78508;SDS011;67802;50.846;7.958;2023-06-24T14:54:35;5.22;;;2.78;;
78508;SDS011;67802;50.846;7.958;2023-06-24T14:57:00;4.90;;;2.55;;
78508;SDS011;67802;50.846;7.958;2023-06-24T14:59:26;4.95;;;2.60;;
78508;SDS011;67802;50.846;7.958;2023-06-24T15:01:51;5.65;;;2.85;;
78508;SDS011;67802;50.846;7.958;2023-06-24T15:04:16;5.00;;;2.63;;
78508;SDS011;67802;50.846;7.958;2023-06-24T15:06:42;5.80;;;2.78;;
78508;SDS011;67802;50.846;7.958;2023-06-24T15:09:07;8.07;;;3.03;;